sensor_id;sensor_type;location;lat;lon;timestamp;pressure;altitude;pressure_sealevel;temperature;humidity
11936;BME280;6027;48.576;9.180;2023-06-19T00:00:01;96495.47;;;23.23;55.69
11936;BME280;6027;48.576;9.180;2023-06-19T00:02:28;96502.22;;;23.16;56.10
11936;BME280;6027;48.576;9.180;2023-06-19T00:04:53;96503.03;;;23.21;56.03
11936;BME280;6027;48.576;9.180;2023-06-19T00:07:18;96502.50;;;23.14;55.87
11936;BME280;6027;48.576;9.180;2023-06-19T00:09:47;96500.34;;;23.16;56.03
11936;BME280;6027;48.576;9.180;2023-06-19T00:12:13;96507.63;;;23.11;56.17
11936;BME280;6027;48.576;9.180;2023-06-19T00:14:38;96501.41;;;23.10;55.46
11936;BME280;6027;48.576;9.180;2023-06-19T00:17:04;96491.72;;;23.09;54.81
11936;BME280;6027;48.576;9.180;2023-06-19T00:19:32;96504.41;;;23.08;54.57
11936;BME280;6027;48.576;9.180;2023-06-19T00:22:02;96494.13;;;23.00;54.77
11936;BME280;6027;48.576;9.180;2023-06-19T00:24:28;96496.03;;;22.85;55.06
11936;BME280;6027;48.576;9.180;2023-06-19T00:26:53;96502.72;;;22.67;56.17
11936;BME280;6027;48.576;9.180;2023-06-19T00:29:19;96505.66;;;22.55;56.43
11936;BME280;6027;48.576;9.180;2023-06-19T00:31:44;96511.56;;;22.32;57.55
11936;BME280;6027;48.576;9.180;2023-06-19T00:34:10;96503.44;;;22.27;58.22
11936;BME280;6027;48.576;9.180;2023-06-19T00:36:35;96502.38;;;22.38;57.64
11936;BME280;6027;48.576;9.180;2023-06-19T00:39:06;96501.34;;;22.49;57.38
11936;BME280;6027;48.576;9.180;2023-06-19T00:41:35;96498.38;;;22.56;57.36
11936;BME280;6027;48.576;9.180;2023-06-19T00:44:00;96503.78;;;22.61;56.86
11936;BME280;6027;48.576;9.180;2023-06-19T00:46:25;96506.47;;;22.61;57.24
11936;BME280;6027;48.576;9.180;2023-06-19T00:48:51;96504.59;;;22.51;57.70
11936;BME280;6027;48.576;9.180;2023-06-19T00:51:16;96511.59;;;22.57;57.46
11936;BME280;6027;48.576;9.180;2023-06-19T00:53:42;96516.19;;;22.62;57.35
11936;BME280;6027;48.576;9.180;2023-06-19T00:56:07;96516.75;;;22.69;57.67
11936;BME280;6027;48.576;9.180;2023-06-19T00:58:33;96524.03;;;22.63;58.32
11936;BME280;6027;48.576;9.180;2023-06-19T01:00:58;96518.91;;;22.62;57.92
11936;BME280;6027;48.576;9.180;2023-06-19T01:03:24;96515.94;;;22.63;57.73
11936;BME280;6027;48.576;9.180;2023-06-19T01:05:53;96524.03;;;22.73;56.83
11936;BME280;6027;48.576;9.180;2023-06-19T01:11:01;96530.53;;;22.67;57.90
11936;BME280;6027;48.576;9.180;2023-06-19T01:13:44;96530.16;;;22.38;60.37
11936;BME280;6027;48.576;9.180;2023-06-19T01:16:11;96530.97;;;22.29;61.31
11936;BME280;6027;48.576;9.180;2023-06-19T01:18:37;96537.97;;;22.35;60.71
11936;BME280;6027;48.576;9.180;2023-06-19T01:21:14;96536.34;;;22.24;60.85
11936;BME280;6027;48.576;9.180;2023-06-19T01:23:40;96544.66;;;22.12;61.43
11936;BME280;6027;48.576;9.180;2023-06-19T01:26:07;96566.09;;;21.92;63.73
11936;BME280;6027;48.576;9.180;2023-06-19T01:28:34;96581.53;;;21.64;65.34
11936;BME280;6027;48.576;9.180;2023-06-19T01:31:00;96563.91;;;21.47;65.52
11936;BME280;6027;48.576;9.180;2023-06-19T01:33:28;96593.75;;;21.40;66.98
11936;BME280;6027;48.576;9.180;2023-06-19T01:35:56;96606.84;;;21.26;68.90
11936;BME280;6027;48.576;9.180;2023-06-19T01:38:25;96608.66;;;21.21;69.45
11936;BME280;6027;48.576;9.180;2023-06-19T01:40:55;96590.88;;;21.20;68.43
11936;BME280;6027;48.576;9.180;2023-06-19T01:43:23;96593.34;;;21.21;67.65
11936;BME280;6027;48.576;9.180;2023-06-19T01:45:48;96594.81;;;21.34;66.41
11936;BME280;6027;48.576;9.180;2023-06-19T01:48:14;96599.94;;;21.35;65.99
11936;BME280;6027;48.576;9.180;2023-06-19T01:50:44;96600.22;;;21.39;66.10
11936;BME280;6027;48.576;9.180;2023-06-19T01:53:10;96610.09;;;21.28;66.81
11936;BME280;6027;48.576;9.180;2023-06-19T01:55:35;96603.50;;;21.19;67.11
11936;BME280;6027;48.576;9.180;2023-06-19T01:58:01;96613.25;;;21.20;67.32
11936;BME280;6027;48.576;9.180;2023-06-19T02:00:26;96611.03;;;21.17;67.44
11936;BME280;6027;48.576;9.180;2023-06-19T02:02:51;96606.19;;;21.19;67.42
11936;BME280;6027;48.576;9.180;2023-06-19T02:05:17;96612.91;;;21.17;67.70
11936;BME280;6027;48.576;9.180;2023-06-19T02:07:42;96617.56;;;21.21;67.70
11936;BME280;6027;48.576;9.180;2023-06-19T02:10:08;96608.28;;;21.34;67.40
11936;BME280;6027;48.576;9.180;2023-06-19T02:12:34;96613.84;;;21.27;68.13
11936;BME280;6027;48.576;9.180;2023-06-19T02:14:59;96610.03;;;21.23;69.14
11936;BME280;6027;48.576;9.180;2023-06-19T02:17:24;96613.59;;;21.29;69.07
11936;BME280;6027;48.576;9.180;2023-06-19T02:19:50;96598.50;;;21.28;69.23
11936;BME280;6027;48.576;9.180;2023-06-19T02:22:17;96598.25;;;21.29;70.10
11936;BME280;6027;48.576;9.180;2023-06-19T02:24:43;96604.75;;;21.33;69.71
11936;BME280;6027;48.576;9.180;2023-06-19T02:27:09;96606.66;;;21.38;69.46
11936;BME280;6027;48.576;9.180;2023-06-19T02:29:35;96605.56;;;21.34;69.55
11936;BME280;6027;48.576;9.180;2023-06-19T02:32:01;96608.78;;;21.36;69.39
11936;BME280;6027;48.576;9.180;2023-06-19T02:34:27;96608.03;;;21.41;69.04
11936;BME280;6027;48.576;9.180;2023-06-19T02:36:53;96611.22;;;21.32;69.05
11936;BME280;6027;48.576;9.180;2023-06-19T02:39:18;96621.06;;;21.22;69.34
11936;BME280;6027;48.576;9.180;2023-06-19T02:41:43;96618.03;;;21.18;69.51
11936;BME280;6027;48.576;9.180;2023-06-19T02:44:14;96618.63;;;21.20;69.75
11936;BME280;6027;48.576;9.180;2023-06-19T02:46:40;96618.13;;;21.23;69.45
11936;BME280;6027;48.576;9.180;2023-06-19T02:49:05;96606.34;;;21.29;69.30
11936;BME280;6027;48.576;9.180;2023-06-19T02:51:31;96608.53;;;21.37;69.11
11936;BME280;6027;48.576;9.180;2023-06-19T02:53:56;96619.09;;;21.17;70.41
11936;BME280;6027;48.576;9.180;2023-06-19T02:56:22;96626.34;;;21.12;71.20
11936;BME280;6027;48.576;9.180;2023-06-19T02:58:48;96630.09;;;21.11;71.54
11936;BME280;6027;48.576;9.180;2023-06-19T03:01:13;96640.81;;;21.06;72.02
11936;BME280;6027;48.576;9.180;2023-06-19T03:03:39;96636.50;;;21.04;72.53
11936;BME280;6027;48.576;9.180;2023-06-19T03:06:07;96645.31;;;21.00;73.09
11936;BME280;6027;48.576;9.180;2023-06-19T03:08:36;96644.09;;;20.86;74.11
11936;BME280;6027;48.576;9.180;2023-06-19T03:11:02;96640.34;;;20.87;74.36
11936;BME280;6027;48.576;9.180;2023-06-19T03:13:54;96644.91;;;20.86;74.64
11936;BME280;6027;48.576;9.180;2023-06-19T03:16:20;96644.56;;;20.78;75.15
11936;BME280;6027;48.576;9.180;2023-06-19T03:18:46;96648.56;;;20.75;75.42
11936;BME280;6027;48.576;9.180;2023-06-19T03:21:15;96645.88;;;20.75;75.42
11936;BME280;6027;48.576;9.180;2023-06-19T03:23:41;96645.16;;;20.85;75.28
11936;BME280;6027;48.576;9.180;2023-06-19T03:26:07;96645.97;;;20.85;75.26
11936;BME280;6027;48.576;9.180;2023-06-19T03:28:32;96653.38;;;20.95;74.54
11936;BME280;6027;48.576;9.180;2023-06-19T03:30:58;96655.69;;;20.86;75.30
11936;BME280;6027;48.576;9.180;2023-06-19T03:33:23;96650.38;;;20.91;75.35
11936;BME280;6027;48.576;9.180;2023-06-19T03:35:49;96654.94;;;20.91;75.51
11936;BME280;6027;48.576;9.180;2023-06-19T03:38:14;96658.94;;;20.88;75.73
11936;BME280;6027;48.576;9.180;2023-06-19T03:40:40;96657.00;;;20.84;75.60
11936;BME280;6027;48.576;9.180;2023-06-19T03:43:05;96650.03;;;20.88;75.32
11936;BME280;6027;48.576;9.180;2023-06-19T03:45:31;96659.56;;;20.95;74.80
11936;BME280;6027;48.576;9.180;2023-06-19T03:47:56;96663.31;;;20.94;75.41
11936;BME280;6027;48.576;9.180;2023-06-19T03:50:22;96661.38;;;20.90;75.63
11936;BME280;6027;48.576;9.180;2023-06-19T03:52:47;96658.19;;;20.93;75.47
11936;BME280;6027;48.576;9.180;2023-06-19T03:55:12;96660.19;;;20.81;75.73
11936;BME280;6027;48.576;9.180;2023-06-19T03:57:38;96662.25;;;20.95;75.40
11936;BME280;6027;48.576;9.180;2023-06-19T04:00:04;96657.81;;;20.84;75.80
11936;BME280;6027;48.576;9.180;2023-06-19T04:02:33;96659.69;;;20.84;75.82
11936;BME280;6027;48.576;9.180;2023-06-19T04:04:58;96671.19;;;20.79;76.03
11936;BME280;6027;48.576;9.180;2023-06-19T04:07:24;96670.34;;;20.74;75.60
11936;BME280;6027;48.576;9.180;2023-06-19T04:09:49;96673.84;;;20.74;75.42
11936;BME280;6027;48.576;9.180;2023-06-19T04:12:15;96665.88;;;20.62;76.61
11936;BME280;6027;48.576;9.180;2023-06-19T04:14:40;96666.78;;;20.68;76.67
11936;BME280;6027;48.576;9.180;2023-06-19T04:17:05;96667.78;;;20.62;77.02
11936;BME280;6027;48.576;9.180;2023-06-19T04:19:31;96662.94;;;20.64;77.34
11936;BME280;6027;48.576;9.180;2023-06-19T04:21:56;96663.69;;;20.59;79.96
11936;BME280;6027;48.576;9.180;2023-06-19T04:24:22;96662.13;;;20.63;80.30
11936;BME280;6027;48.576;9.180;2023-06-19T04:26:47;96664.28;;;20.40;83.61
11936;BME280;6027;48.576;9.180;2023-06-19T04:29:13;96658.09;;;20.39;85.67
11936;BME280;6027;48.576;9.180;2023-06-19T04:31:44;96657.78;;;20.19;87.42
11936;BME280;6027;48.576;9.180;2023-06-19T04:34:12;96655.66;;;20.21;89.08
11936;BME280;6027;48.576;9.180;2023-06-19T04:36:40;96665.28;;;20.17;88.63
11936;BME280;6027;48.576;9.180;2023-06-19T04:39:06;96664.16;;;20.13;90.07
11936;BME280;6027;48.576;9.180;2023-06-19T04:41:34;96674.50;;;20.04;90.38
11936;BME280;6027;48.576;9.180;2023-06-19T04:44:06;96671.41;;;20.12;89.67
11936;BME280;6027;48.576;9.180;2023-06-19T04:46:33;96674.00;;;20.07;90.06
11936;BME280;6027;48.576;9.180;2023-06-19T04:48:58;96671.28;;;20.24;89.14
11936;BME280;6027;48.576;9.180;2023-06-19T04:51:24;96675.75;;;20.35;88.53
11936;BME280;6027;48.576;9.180;2023-06-19T04:53:51;96670.16;;;20.37;88.00
11936;BME280;6027;48.576;9.180;2023-06-19T04:56:17;96674.94;;;20.34;88.44
11936;BME280;6027;48.576;9.180;2023-06-19T04:58:43;96670.53;;;20.28;88.25
11936;BME280;6027;48.576;9.180;2023-06-19T05:01:15;96672.75;;;20.31;88.04
11936;BME280;6027;48.576;9.180;2023-06-19T05:03:43;96676.72;;;20.29;88.14
11936;BME280;6027;48.576;9.180;2023-06-19T05:06:11;96678.38;;;20.30;88.08
11936;BME280;6027;48.576;9.180;2023-06-19T05:08:36;96682.44;;;20.32;87.77
11936;BME280;6027;48.576;9.180;2023-06-19T05:11:02;96679.41;;;20.46;87.66
11936;BME280;6027;48.576;9.180;2023-06-19T05:13:27;96687.47;;;20.46;87.58
11936;BME280;6027;48.576;9.180;2023-06-19T05:15:53;96683.41;;;20.43;88.00
11936;BME280;6027;48.576;9.180;2023-06-19T05:18:18;96679.03;;;20.37;88.61
11936;BME280;6027;48.576;9.180;2023-06-19T05:20:44;96683.25;;;20.33;89.27
11936;BME280;6027;48.576;9.180;2023-06-19T05:23:10;96675.09;;;20.28;90.07
11936;BME280;6027;48.576;9.180;2023-06-19T05:25:36;96684.31;;;20.32;89.70
11936;BME280;6027;48.576;9.180;2023-06-19T05:28:01;96681.13;;;20.35;89.79
11936;BME280;6027;48.576;9.180;2023-06-19T05:30:27;96688.97;;;20.37;90.71
11936;BME280;6027;48.576;9.180;2023-06-19T05:32:52;96688.78;;;20.43;89.60
11936;BME280;6027;48.576;9.180;2023-06-19T05:35:18;96694.94;;;20.39;90.86
11936;BME280;6027;48.576;9.180;2023-06-19T05:37:43;96681.78;;;20.42;90.98
11936;BME280;6027;48.576;9.180;2023-06-19T05:40:09;96686.41;;;20.47;90.76
11936;BME280;6027;48.576;9.180;2023-06-19T05:42:35;96685.53;;;20.41;91.26
11936;BME280;6027;48.576;9.180;2023-06-19T05:45:02;96689.84;;;20.42;91.07
11936;BME280;6027;48.576;9.180;2023-06-19T05:47:28;96699.13;;;20.51;91.06
11936;BME280;6027;48.576;9.180;2023-06-19T05:49:56;96692.59;;;20.47;90.22
11936;BME280;6027;48.576;9.180;2023-06-19T05:52:22;96688.69;;;20.55;90.16
11936;BME280;6027;48.576;9.180;2023-06-19T05:54:47;96696.03;;;20.64;89.39
11936;BME280;6027;48.576;9.180;2023-06-19T05:57:13;96693.94;;;20.66;90.82
11936;BME280;6027;48.576;9.180;2023-06-19T05:59:41;96706.72;;;20.59;90.02
11936;BME280;6027;48.576;9.180;2023-06-19T06:02:06;96713.31;;;20.68;90.15
11936;BME280;6027;48.576;9.180;2023-06-19T06:04:33;96713.16;;;20.75;91.50
11936;BME280;6027;48.576;9.180;2023-06-19T06:06:59;96709.19;;;20.83;90.15
11936;BME280;6027;48.576;9.180;2023-06-19T06:09:25;96711.84;;;20.78;90.48
11936;BME280;6027;48.576;9.180;2023-06-19T06:11:50;96715.63;;;20.82;91.51
11936;BME280;6027;48.576;9.180;2023-06-19T06:14:15;96711.84;;;20.78;91.89
11936;BME280;6027;48.576;9.180;2023-06-19T06:16:41;96716.94;;;20.79;90.81
11936;BME280;6027;48.576;9.180;2023-06-19T06:19:06;96723.13;;;20.80;90.59
11936;BME280;6027;48.576;9.180;2023-06-19T06:21:32;96719.94;;;20.83;91.47
11936;BME280;6027;48.576;9.180;2023-06-19T06:23:57;96735.34;;;20.87;89.82
11936;BME280;6027;48.576;9.180;2023-06-19T06:26:22;96730.72;;;20.83;89.68
11936;BME280;6027;48.576;9.180;2023-06-19T06:28:48;96729.97;;;20.87;93.06
11936;BME280;6027;48.576;9.180;2023-06-19T06:31:13;96730.34;;;20.96;89.88
11936;BME280;6027;48.576;9.180;2023-06-19T06:33:39;96732.22;;;20.95;90.97
11936;BME280;6027;48.576;9.180;2023-06-19T06:36:04;96737.16;;;21.03;90.72
11936;BME280;6027;48.576;9.180;2023-06-19T06:38:30;96739.84;;;21.03;90.95
11936;BME280;6027;48.576;9.180;2023-06-19T06:40:55;96747.66;;;21.05;89.80
11936;BME280;6027;48.576;9.180;2023-06-19T06:43:21;96746.03;;;21.04;88.66
11936;BME280;6027;48.576;9.180;2023-06-19T06:45:46;96751.75;;;21.08;88.40
11936;BME280;6027;48.576;9.180;2023-06-19T06:48:11;96756.88;;;21.09;87.96
11936;BME280;6027;48.576;9.180;2023-06-19T06:50:37;96749.63;;;21.10;88.58
11936;BME280;6027;48.576;9.180;2023-06-19T06:53:02;96753.25;;;21.20;89.12
11936;BME280;6027;48.576;9.180;2023-06-19T06:55:28;96753.25;;;21.20;89.13
11936;BME280;6027;48.576;9.180;2023-06-19T06:57:53;96753.94;;;21.32;88.10
11936;BME280;6027;48.576;9.180;2023-06-19T07:00:19;96761.16;;;21.54;89.35
11936;BME280;6027;48.576;9.180;2023-06-19T07:02:44;96759.13;;;21.66;86.54
11936;BME280;6027;48.576;9.180;2023-06-19T07:05:13;96760.25;;;21.70;85.54
11936;BME280;6027;48.576;9.180;2023-06-19T07:07:38;96755.69;;;21.76;85.89
11936;BME280;6027;48.576;9.180;2023-06-19T07:10:04;96766.78;;;21.79;87.63
11936;BME280;6027;48.576;9.180;2023-06-19T07:12:30;96750.97;;;21.88;82.95
11936;BME280;6027;48.576;9.180;2023-06-19T07:14:55;96752.09;;;21.97;84.99
11936;BME280;6027;48.576;9.180;2023-06-19T07:17:21;96759.56;;;22.12;83.23
11936;BME280;6027;48.576;9.180;2023-06-19T07:19:47;96750.16;;;22.19;81.19
11936;BME280;6027;48.576;9.180;2023-06-19T07:22:13;96758.00;;;22.21;81.54
11936;BME280;6027;48.576;9.180;2023-06-19T07:24:40;96748.53;;;22.18;82.65
11936;BME280;6027;48.576;9.180;2023-06-19T07:27:06;96742.03;;;22.14;83.50
11936;BME280;6027;48.576;9.180;2023-06-19T07:29:31;96754.78;;;22.24;84.65
11936;BME280;6027;48.576;9.180;2023-06-19T07:31:58;96755.94;;;22.38;83.42
11936;BME280;6027;48.576;9.180;2023-06-19T07:34:23;96751.38;;;22.38;82.89
11936;BME280;6027;48.576;9.180;2023-06-19T07:36:49;96756.50;;;22.40;83.07
11936;BME280;6027;48.576;9.180;2023-06-19T07:39:15;96758.13;;;22.41;83.53
11936;BME280;6027;48.576;9.180;2023-06-19T07:41:41;96754.06;;;22.38;84.08
11936;BME280;6027;48.576;9.180;2023-06-19T07:44:06;96758.44;;;22.45;83.82
11936;BME280;6027;48.576;9.180;2023-06-19T07:46:32;96762.72;;;22.40;82.51
11936;BME280;6027;48.576;9.180;2023-06-19T07:48:57;96763.00;;;22.44;84.10
11936;BME280;6027;48.576;9.180;2023-06-19T07:51:23;96771.97;;;22.55;81.75
11936;BME280;6027;48.576;9.180;2023-06-19T07:53:48;96764.94;;;22.54;81.69
11936;BME280;6027;48.576;9.180;2023-06-19T07:56:14;96753.16;;;22.65;82.70
11936;BME280;6027;48.576;9.180;2023-06-19T07:58:39;96760.47;;;22.74;82.69
11936;BME280;6027;48.576;9.180;2023-06-19T08:01:05;96759.50;;;22.86;81.29
11936;BME280;6027;48.576;9.180;2023-06-19T08:03:30;96753.34;;;23.00;77.56
11936;BME280;6027;48.576;9.180;2023-06-19T08:05:56;96757.97;;;23.10;78.22
11936;BME280;6027;48.576;9.180;2023-06-19T08:08:22;96766.06;;;23.10;75.46
11936;BME280;6027;48.576;9.180;2023-06-19T08:10:47;96757.44;;;23.08;75.31
11936;BME280;6027;48.576;9.180;2023-06-19T08:13:13;96765.00;;;23.06;76.42
11936;BME280;6027;48.576;9.180;2023-06-19T08:15:38;96764.44;;;23.04;74.94
11936;BME280;6027;48.576;9.180;2023-06-19T08:18:04;96771.47;;;23.10;75.69
11936;BME280;6027;48.576;9.180;2023-06-19T08:20:29;96765.50;;;23.03;74.53
11936;BME280;6027;48.576;9.180;2023-06-19T08:22:55;96762.28;;;23.06;74.69
11936;BME280;6027;48.576;9.180;2023-06-19T08:25:21;96767.19;;;23.19;75.86
11936;BME280;6027;48.576;9.180;2023-06-19T08:27:47;96768.81;;;23.20;75.74
11936;BME280;6027;48.576;9.180;2023-06-19T08:30:12;96753.97;;;23.23;78.08
11936;BME280;6027;48.576;9.180;2023-06-19T08:32:38;96753.69;;;23.19;73.94
11936;BME280;6027;48.576;9.180;2023-06-19T08:35:03;96755.88;;;23.32;75.70
11936;BME280;6027;48.576;9.180;2023-06-19T08:37:29;96760.50;;;23.37;74.51
11936;BME280;6027;48.576;9.180;2023-06-19T08:39:54;96763.50;;;23.46;73.72
11936;BME280;6027;48.576;9.180;2023-06-19T08:42:22;96752.94;;;23.44;71.57
11936;BME280;6027;48.576;9.180;2023-06-19T08:44:48;96752.13;;;23.49;71.68
11936;BME280;6027;48.576;9.180;2023-06-19T08:47:14;96751.91;;;23.55;67.99
11936;BME280;6027;48.576;9.180;2023-06-19T08:49:40;96755.44;;;23.56;68.27
11936;BME280;6027;48.576;9.180;2023-06-19T08:52:06;96753.75;;;23.50;69.03
11936;BME280;6027;48.576;9.180;2023-06-19T08:54:32;96760.78;;;23.51;67.60
11936;BME280;6027;48.576;9.180;2023-06-19T08:57:01;96753.75;;;23.45;67.94
11936;BME280;6027;48.576;9.180;2023-06-19T08:59:27;96748.97;;;23.62;69.17
11936;BME280;6027;48.576;9.180;2023-06-19T09:01:54;96744.63;;;23.71;69.63
11936;BME280;6027;48.576;9.180;2023-06-19T09:04:29;96747.63;;;23.90;68.21
11936;BME280;6027;48.576;9.180;2023-06-19T09:07:01;96746.81;;;24.09;67.51
11936;BME280;6027;48.576;9.180;2023-06-19T09:09:27;96745.19;;;24.14;66.80
11936;BME280;6027;48.576;9.180;2023-06-19T09:12:12;96741.13;;;24.26;66.84
11936;BME280;6027;48.576;9.180;2023-06-19T09:14:39;96740.88;;;24.43;63.47
11936;BME280;6027;48.576;9.180;2023-06-19T09:17:07;96738.09;;;24.63;63.59
11936;BME280;6027;48.576;9.180;2023-06-19T09:19:34;96747.28;;;24.77;60.61
11936;BME280;6027;48.576;9.180;2023-06-19T09:22:07;96750.78;;;24.78;58.28
11936;BME280;6027;48.576;9.180;2023-06-19T09:24:34;96747.00;;;24.74;55.52
11936;BME280;6027;48.576;9.180;2023-06-19T09:27:11;96740.50;;;24.75;55.72
11936;BME280;6027;48.576;9.180;2023-06-19T09:29:42;96742.41;;;24.69;54.51
11936;BME280;6027;48.576;9.180;2023-06-19T09:34:46;96750.56;;;24.59;54.02
11936;BME280;6027;48.576;9.180;2023-06-19T09:37:12;96735.91;;;24.65;53.45
11936;BME280;6027;48.576;9.180;2023-06-19T09:39:39;96745.13;;;24.64;53.80
11936;BME280;6027;48.576;9.180;2023-06-19T09:42:09;96737.28;;;24.68;55.74
11936;BME280;6027;48.576;9.180;2023-06-19T09:44:46;96738.91;;;24.64;53.28
11936;BME280;6027;48.576;9.180;2023-06-19T09:47:22;96739.72;;;24.64;53.30
11936;BME280;6027;48.576;9.180;2023-06-19T09:49:54;96737.81;;;24.70;54.25
11936;BME280;6027;48.576;9.180;2023-06-19T09:52:21;96743.47;;;24.78;53.84
11936;BME280;6027;48.576;9.180;2023-06-19T09:54:51;96745.09;;;24.79;54.13
11936;BME280;6027;48.576;9.180;2023-06-19T09:57:16;96743.16;;;24.85;52.61
11936;BME280;6027;48.576;9.180;2023-06-19T09:59:46;96732.63;;;24.84;52.88
11936;BME280;6027;48.576;9.180;2023-06-19T10:02:12;96736.72;;;24.81;54.05
11936;BME280;6027;48.576;9.180;2023-06-19T10:04:44;96733.41;;;24.89;54.22
11936;BME280;6027;48.576;9.180;2023-06-19T10:07:20;96733.97;;;25.01;52.40
11936;BME280;6027;48.576;9.180;2023-06-19T10:09:59;96735.22;;;25.19;53.08
11936;BME280;6027;48.576;9.180;2023-06-19T10:12:42;96732.97;;;25.36;52.51
11936;BME280;6027;48.576;9.180;2023-06-19T10:15:22;96731.28;;;25.40;51.92
11936;BME280;6027;48.576;9.180;2023-06-19T10:20:28;96730.66;;;25.59;52.90
11936;BME280;6027;48.576;9.180;2023-06-19T10:23:06;96727.91;;;25.64;50.24
11936;BME280;6027;48.576;9.180;2023-06-19T10:25:34;96725.41;;;25.77;50.89
11936;BME280;6027;48.576;9.180;2023-06-19T10:28:00;96726.16;;;25.83;51.85
11936;BME280;6027;48.576;9.180;2023-06-19T10:30:26;96709.00;;;25.93;51.43
11936;BME280;6027;48.576;9.180;2023-06-19T10:32:51;96725.44;;;26.06;50.28
11936;BME280;6027;48.576;9.180;2023-06-19T10:35:18;96724.31;;;26.12;50.66
11936;BME280;6027;48.576;9.180;2023-06-19T10:37:47;96704.13;;;26.19;51.00
11936;BME280;6027;48.576;9.180;2023-06-19T10:40:13;96708.44;;;26.25;50.79
11936;BME280;6027;48.576;9.180;2023-06-19T10:42:40;96708.47;;;26.20;50.97
11936;BME280;6027;48.576;9.180;2023-06-19T10:45:12;96717.38;;;26.25;50.07
11936;BME280;6027;48.576;9.180;2023-06-19T10:47:39;96707.91;;;26.23;50.03
11936;BME280;6027;48.576;9.180;2023-06-19T10:50:10;96711.03;;;26.40;48.82
11936;BME280;6027;48.576;9.180;2023-06-19T10:52:35;96699.63;;;26.38;50.69
11936;BME280;6027;48.576;9.180;2023-06-19T10:55:03;96702.59;;;26.41;49.94
11936;BME280;6027;48.576;9.180;2023-06-19T10:57:29;96701.16;;;26.49;50.63
11936;BME280;6027;48.576;9.180;2023-06-19T10:59:56;96705.84;;;26.67;49.45
11936;BME280;6027;48.576;9.180;2023-06-19T11:02:21;96698.63;;;26.81;49.78
11936;BME280;6027;48.576;9.180;2023-06-19T11:04:47;96692.59;;;26.84;47.89
11936;BME280;6027;48.576;9.180;2023-06-19T11:07:13;96686.94;;;27.05;48.43
11936;BME280;6027;48.576;9.180;2023-06-19T11:09:38;96696.84;;;27.14;49.35
11936;BME280;6027;48.576;9.180;2023-06-19T11:12:04;96691.66;;;27.18;48.15
11936;BME280;6027;48.576;9.180;2023-06-19T11:14:33;96692.63;;;27.27;46.73
11936;BME280;6027;48.576;9.180;2023-06-19T11:17:05;96695.28;;;26.90;46.12
11936;BME280;6027;48.576;9.180;2023-06-19T11:19:31;96685.56;;;26.83;47.53
11936;BME280;6027;48.576;9.180;2023-06-19T11:21:59;96684.28;;;27.00;48.09
11936;BME280;6027;48.576;9.180;2023-06-19T11:24:29;96674.97;;;27.06;46.46
11936;BME280;6027;48.576;9.180;2023-06-19T11:26:56;96672.34;;;27.20;46.15
11936;BME280;6027;48.576;9.180;2023-06-19T11:29:29;96676.38;;;27.22;47.37
11936;BME280;6027;48.576;9.180;2023-06-19T11:32:06;96669.31;;;27.21;46.47
11936;BME280;6027;48.576;9.180;2023-06-19T11:34:35;96669.03;;;27.23;47.07
11936;BME280;6027;48.576;9.180;2023-06-19T11:37:14;96663.94;;;27.16;44.43
11936;BME280;6027;48.576;9.180;2023-06-19T11:39:43;96668.09;;;27.32;44.40
11936;BME280;6027;48.576;9.180;2023-06-19T11:42:08;96679.09;;;27.41;43.78
11936;BME280;6027;48.576;9.180;2023-06-19T11:44:34;96670.72;;;27.37;43.98
11936;BME280;6027;48.576;9.180;2023-06-19T11:47:00;96666.31;;;27.41;44.61
11936;BME280;6027;48.576;9.180;2023-06-19T11:49:25;96661.38;;;27.43;44.92
11936;BME280;6027;48.576;9.180;2023-06-19T11:51:51;96670.16;;;27.59;44.44
11936;BME280;6027;48.576;9.180;2023-06-19T11:54:19;96663.47;;;27.51;44.25
11936;BME280;6027;48.576;9.180;2023-06-19T11:56:46;96662.78;;;27.60;44.68
11936;BME280;6027;48.576;9.180;2023-06-19T11:59:13;96654.06;;;27.63;43.14
11936;BME280;6027;48.576;9.180;2023-06-19T12:01:39;96653.06;;;27.72;43.63
11936;BME280;6027;48.576;9.180;2023-06-19T12:04:04;96649.47;;;27.77;43.00
11936;BME280;6027;48.576;9.180;2023-06-19T12:06:30;96650.66;;;27.71;43.40
11936;BME280;6027;48.576;9.180;2023-06-19T12:08:56;96646.91;;;27.67;44.31
11936;BME280;6027;48.576;9.180;2023-06-19T12:11:22;96644.09;;;27.72;44.41
11936;BME280;6027;48.576;9.180;2023-06-19T12:13:47;96643.94;;;27.82;43.89
11936;BME280;6027;48.576;9.180;2023-06-19T12:16:13;96648.28;;;27.83;44.35
11936;BME280;6027;48.576;9.180;2023-06-19T12:18:39;96644.03;;;27.91;44.55
11936;BME280;6027;48.576;9.180;2023-06-19T12:21:05;96646.22;;;28.07;43.61
11936;BME280;6027;48.576;9.180;2023-06-19T12:23:31;96651.81;;;28.30;43.16
11936;BME280;6027;48.576;9.180;2023-06-19T12:25:56;96644.66;;;28.34;42.03
11936;BME280;6027;48.576;9.180;2023-06-19T12:28:22;96639.63;;;28.41;40.72
11936;BME280;6027;48.576;9.180;2023-06-19T12:30:48;96638.63;;;28.37;40.71
11936;BME280;6027;48.576;9.180;2023-06-19T12:33:17;96640.13;;;28.43;41.61
11936;BME280;6027;48.576;9.180;2023-06-19T12:35:44;96636.41;;;28.52;42.16
11936;BME280;6027;48.576;9.180;2023-06-19T12:38:10;96644.06;;;28.64;41.11
11936;BME280;6027;48.576;9.180;2023-06-19T12:40:36;96641.78;;;28.85;41.35
11936;BME280;6027;48.576;9.180;2023-06-19T12:43:02;96631.25;;;28.78;39.61
11936;BME280;6027;48.576;9.180;2023-06-19T12:45:27;96633.47;;;28.63;39.33
11936;BME280;6027;48.576;9.180;2023-06-19T12:47:53;96640.31;;;28.33;39.05
11936;BME280;6027;48.576;9.180;2023-06-19T12:50:18;96624.78;;;28.33;39.44
11936;BME280;6027;48.576;9.180;2023-06-19T12:52:44;96627.94;;;28.27;41.40
11936;BME280;6027;48.576;9.180;2023-06-19T12:55:09;96631.47;;;28.41;41.96
11936;BME280;6027;48.576;9.180;2023-06-19T12:57:35;96633.28;;;28.45;40.63
11936;BME280;6027;48.576;9.180;2023-06-19T13:00:01;96631.56;;;28.63;39.56
11936;BME280;6027;48.576;9.180;2023-06-19T13:02:29;96631.34;;;28.60;41.53
11936;BME280;6027;48.576;9.180;2023-06-19T13:04:54;96623.91;;;28.65;40.41
11936;BME280;6027;48.576;9.180;2023-06-19T13:07:20;96625.88;;;28.73;39.80
11936;BME280;6027;48.576;9.180;2023-06-19T13:09:45;96622.38;;;28.86;40.09
11936;BME280;6027;48.576;9.180;2023-06-19T13:12:11;96619.53;;;28.78;39.73
11936;BME280;6027;48.576;9.180;2023-06-19T13:14:36;96612.69;;;28.80;38.90